createdAt,value
2018-01-14T00:01:08.448Z,102694.22
2018-01-14T00:03:35.966Z,102699.07
2018-01-14T00:06:03.481Z,102711.95
2018-01-14T00:08:31.010Z,102693.58
2018-01-14T00:10:58.578Z,102693.78
2018-01-14T00:13:26.105Z,102692.95
2018-01-14T00:15:53.721Z,102694.67
2018-01-14T00:18:21.296Z,102695.94
2018-01-14T00:20:48.824Z,102688.81
2018-01-14T00:23:16.416Z,102698.31
2018-01-14T00:25:43.977Z,102693.28
2018-01-14T00:28:11.515Z,102703.60
2018-01-14T00:30:39.049Z,102695.26
2018-01-14T00:33:06.582Z,102701.14
2018-01-14T00:35:34.124Z,102701.97
2018-01-14T00:38:01.653Z,102699.70
2018-01-14T00:40:29.240Z,102688.94
2018-01-14T00:42:56.776Z,102692.39
2018-01-14T00:45:24.308Z,102690.09
2018-01-14T00:47:51.918Z,102685.16
2018-01-14T00:50:19.474Z,102693.79
2018-01-14T00:52:47.029Z,102684.42
2018-01-14T00:55:14.597Z,102693.61
2018-01-14T00:57:42.122Z,102693.86
2018-01-14T01:00:09.716Z,102684.56
2018-01-14T01:02:37.239Z,102682.17
2018-01-14T01:05:04.773Z,102697.08
2018-01-14T01:07:32.342Z,102687.27
2018-01-14T01:09:59.872Z,102688.08
2018-01-14T01:12:27.401Z,102689.79
2018-01-14T01:14:54.912Z,102691.39
2018-01-14T01:17:22.436Z,102689.62
2018-01-14T01:19:49.952Z,102686.59
2018-01-14T01:22:17.492Z,102681.03
2018-01-14T01:24:45.009Z,102690.19
2018-01-14T01:27:12.563Z,102690.14
2018-01-14T01:29:40.128Z,102680.49
2018-01-14T01:32:07.657Z,102690.98
2018-01-14T01:34:35.182Z,102680.34
2018-01-14T01:37:02.716Z,102674.14
2018-01-14T01:39:30.240Z,102677.14
2018-01-14T01:41:57.766Z,102670.53
2018-01-14T01:44:25.384Z,102672.14
2018-01-14T01:46:52.914Z,102671.73
2018-01-14T01:49:20.445Z,102675.11
2018-01-14T01:51:48.060Z,102672.03
2018-01-14T01:54:15.592Z,102671.55
2018-01-14T01:56:43.154Z,102671.86
2018-01-14T01:59:10.682Z,102664.45
2018-01-14T02:01:38.206Z,102664.91
2018-01-14T02:04:05.818Z,102675.41
2018-01-14T02:06:33.362Z,102666.05
2018-01-14T02:11:27.700Z,102672.64
2018-01-14T02:13:55.229Z,102670.76
2018-01-14T02:16:22.757Z,102671.08
2018-01-14T02:18:50.289Z,102668.02
2018-01-14T02:21:17.864Z,102672.77
2018-01-14T02:23:45.392Z,102672.68
2018-01-14T02:26:12.982Z,102681.10
2018-01-14T02:28:40.509Z,102682.84
2018-01-14T02:31:08.102Z,102683.58
2018-01-14T02:33:35.628Z,102682.12
2018-01-14T02:36:03.158Z,102676.41
2018-01-14T02:38:30.782Z,102688.06
2018-01-14T02:40:58.310Z,102687.15
2018-01-14T02:43:25.903Z,102682.88
2018-01-14T02:45:53.451Z,102681.23
2018-01-14T02:48:20.981Z,102676.88
2018-01-14T02:50:48.513Z,102683.17
2018-01-14T02:53:16.138Z,102685.27
2018-01-14T02:55:43.670Z,102693.00
2018-01-14T02:58:11.189Z,102692.41
2018-01-14T03:00:38.715Z,102697.35
2018-01-14T03:03:06.237Z,102688.56
2018-01-14T03:05:33.764Z,102694.91
2018-01-14T03:08:01.395Z,102688.31
2018-01-14T03:10:28.924Z,102692.22
2018-01-14T03:12:56.449Z,102693.42
2018-01-14T03:15:23.987Z,102696.59
2018-01-14T03:17:51.509Z,102692.53
2018-01-14T03:20:19.025Z,102685.38
2018-01-14T03:22:46.540Z,102692.02
2018-01-14T03:25:14.121Z,102690.36
2018-01-14T03:27:41.650Z,102688.72
2018-01-14T03:30:09.178Z,102681.48
2018-01-14T03:32:36.763Z,102683.16
2018-01-14T03:35:04.313Z,102683.98
2018-01-14T03:37:31.828Z,102674.70
2018-01-14T03:39:59.348Z,102669.73
2018-01-14T03:42:26.860Z,102670.58
2018-01-14T03:44:54.379Z,102669.63
2018-01-14T03:47:21.893Z,102676.16
2018-01-14T03:49:49.411Z,102671.64
2018-01-14T03:52:16.933Z,102676.44
2018-01-14T03:54:44.524Z,102672.27
2018-01-14T03:57:12.049Z,102677.54
2018-01-14T03:59:39.577Z,102668.30
2018-01-14T04:02:07.091Z,102668.20
2018-01-14T04:04:34.620Z,102664.22
2018-01-14T04:07:02.193Z,102662.73
2018-01-14T04:09:29.783Z,102658.69
2018-01-14T04:11:57.312Z,102657.81
2018-01-14T04:14:24.835Z,102665.72
2018-01-14T04:16:52.348Z,102659.47
2018-01-14T04:19:22.304Z,102664.62
2018-01-14T04:21:49.826Z,102665.05
2018-01-14T04:24:17.335Z,102655.77
2018-01-14T04:26:44.853Z,102663.63
2018-01-14T04:29:12.403Z,102656.05
2018-01-14T04:31:39.949Z,102667.41
2018-01-14T04:34:07.481Z,102669.92
2018-01-14T04:36:34.999Z,102666.49
2018-01-14T04:39:02.525Z,102661.70
2018-01-14T04:41:30.108Z,102673.42
2018-01-14T04:43:57.642Z,102656.84
2018-01-14T04:46:25.165Z,102654.08
2018-01-14T04:48:52.694Z,102658.48
2018-01-14T04:51:20.241Z,102661.06
2018-01-14T04:53:47.775Z,102663.20
2018-01-14T04:56:15.302Z,102666.67
2018-01-14T04:58:42.834Z,102658.66
2018-01-14T05:01:10.360Z,102654.27
2018-01-14T05:03:37.881Z,102659.10
2018-01-14T05:06:05.395Z,102657.20
2018-01-14T05:08:32.933Z,102657.28
2018-01-14T05:11:00.519Z,102657.58
2018-01-14T05:13:28.017Z,102660.66
2018-01-14T05:15:55.644Z,102670.70
2018-01-14T05:18:23.205Z,102673.34
2018-01-14T05:20:50.745Z,102678.97
2018-01-14T05:23:18.277Z,102678.50
2018-01-14T05:25:45.799Z,102677.16
2018-01-14T05:28:13.316Z,102673.66
2018-01-14T05:30:40.841Z,102678.45
2018-01-14T05:33:08.365Z,102676.64
2018-01-14T05:35:35.912Z,102673.11
2018-01-14T05:38:03.436Z,102671.20
2018-01-14T05:40:31.040Z,102669.89
2018-01-14T05:42:58.572Z,102672.39
2018-01-14T05:45:26.166Z,102668.50
2018-01-14T05:47:53.712Z,102669.23
2018-01-14T05:50:21.285Z,102670.16
2018-01-14T05:52:48.816Z,102667.63
2018-01-14T05:55:16.364Z,102661.80
2018-01-14T05:57:43.894Z,102663.55
2018-01-14T06:00:11.511Z,102674.04
2018-01-14T06:02:39.032Z,102676.59
2018-01-14T06:05:06.648Z,102684.41
2018-01-14T06:07:34.173Z,102685.64
2018-01-14T06:10:01.692Z,102682.20
2018-01-14T06:12:29.219Z,102680.94
2018-01-14T06:14:56.767Z,102671.70
2018-01-14T06:17:24.289Z,102671.13
2018-01-14T06:19:51.813Z,102669.38
2018-01-14T06:22:19.330Z,102674.20
2018-01-14T06:24:46.858Z,102671.48
2018-01-14T06:27:14.375Z,102670.69
2018-01-14T06:29:41.924Z,102661.91
2018-01-14T06:32:09.455Z,102664.43
2018-01-14T06:34:37.001Z,102667.48
2018-01-14T06:37:04.614Z,102669.20
2018-01-14T06:39:32.144Z,102671.77
2018-01-14T06:41:59.676Z,102674.35
2018-01-14T06:44:27.240Z,102678.17
2018-01-14T06:46:54.849Z,102677.70
2018-01-14T06:49:22.404Z,102677.23
2018-01-14T06:51:49.978Z,102676.25
2018-01-14T06:54:17.543Z,102671.00
2018-01-14T06:56:45.066Z,102672.22
2018-01-14T06:59:12.601Z,102677.42
2018-01-14T07:01:40.125Z,102676.78
2018-01-14T07:04:07.636Z,102671.05
2018-01-14T07:06:35.192Z,102671.39
2018-01-14T07:09:02.753Z,102666.63
2018-01-14T07:11:30.308Z,102670.95
2018-01-14T07:13:57.834Z,102667.05
2018-01-14T07:16:25.365Z,102670.11
2018-01-14T07:18:52.923Z,102666.98
2018-01-14T07:21:20.445Z,102675.02
2018-01-14T07:23:47.960Z,102663.95
2018-01-14T07:26:15.501Z,102662.74
2018-01-14T07:28:43.029Z,102656.20
2018-01-14T07:31:10.553Z,102661.85
2018-01-14T07:33:38.193Z,102666.39
2018-01-14T07:36:05.721Z,102666.44
2018-01-14T07:38:33.268Z,102673.41
2018-01-14T07:41:00.832Z,102675.25
2018-01-14T07:43:28.385Z,102673.16
2018-01-14T07:45:55.989Z,102673.16
2018-01-14T07:48:23.518Z,102668.62
2018-01-14T07:50:51.041Z,102676.86
2018-01-14T07:53:18.660Z,102672.94
2018-01-14T07:55:46.184Z,102673.11
2018-01-14T07:58:13.720Z,102674.51
2018-01-14T08:00:41.340Z,102682.55
2018-01-14T08:03:08.864Z,102680.27
2018-01-14T08:05:36.468Z,102685.67
2018-01-14T08:08:04.034Z,102680.85
2018-01-14T08:10:31.562Z,102681.19
2018-01-14T08:12:59.152Z,102684.18
2018-01-14T08:15:26.668Z,102678.09
2018-01-14T08:17:54.275Z,102678.21
2018-01-14T08:20:21.836Z,102685.55
2018-01-14T08:22:49.376Z,102684.12
2018-01-14T08:25:16.950Z,102694.95
2018-01-14T08:27:44.480Z,102690.95
2018-01-14T08:30:12.005Z,102692.03
2018-01-14T08:32:39.646Z,102690.64
2018-01-14T08:35:07.279Z,102683.95
2018-01-14T08:37:34.812Z,102689.69
2018-01-14T08:40:02.346Z,102683.77
2018-01-14T08:42:29.868Z,102682.33
2018-01-14T08:44:57.404Z,102681.16
2018-01-14T08:47:24.929Z,102681.28
2018-01-14T08:49:52.558Z,102688.91
2018-01-14T08:52:20.089Z,102680.03
2018-01-14T08:54:47.608Z,102688.20
2018-01-14T08:57:15.226Z,102693.41
2018-01-14T08:59:42.799Z,102685.66
2018-01-14T09:02:10.316Z,102673.77
2018-01-14T09:04:37.840Z,102684.66
2018-01-14T09:07:05.468Z,102689.81
2018-01-14T09:09:33.049Z,102696.06
2018-01-14T09:12:00.566Z,102689.60
2018-01-14T09:14:28.090Z,102680.96
2018-01-14T09:16:55.714Z,102668.34
2018-01-14T09:19:23.283Z,102677.48
2018-01-14T09:21:50.805Z,102681.23
2018-01-14T09:24:18.324Z,102686.76
2018-01-14T09:26:45.841Z,102692.62
2018-01-14T09:29:13.394Z,102698.94
2018-01-14T09:31:40.908Z,102688.34
2018-01-14T09:34:08.471Z,102701.86
2018-01-14T09:36:35.977Z,102691.55
2018-01-14T09:39:03.489Z,102687.49
2018-01-14T09:41:31.162Z,102697.66
2018-01-14T09:43:58.672Z,102692.91
2018-01-14T09:46:26.237Z,102684.39
2018-01-14T09:48:53.795Z,102694.63
2018-01-14T09:51:21.322Z,102693.95
2018-01-14T09:53:48.924Z,102694.01
2018-01-14T09:56:16.471Z,102695.26
2018-01-14T09:58:44.016Z,102690.98
2018-01-14T10:01:11.567Z,102687.99
2018-01-14T10:03:39.149Z,102688.39
2018-01-14T10:06:06.661Z,102694.27
2018-01-14T10:08:34.191Z,102695.84
2018-01-14T10:11:01.725Z,102684.69
2018-01-14T10:13:29.283Z,102688.37
2018-01-14T10:15:56.817Z,102681.40
2018-01-14T10:18:24.413Z,102673.99
2018-01-14T10:20:51.968Z,102681.75
2018-01-14T10:23:19.492Z,102689.83
2018-01-14T10:25:47.012Z,102675.53
2018-01-14T10:28:14.610Z,102676.53
2018-01-14T10:30:42.184Z,102680.20
2018-01-14T10:33:09.692Z,102659.00
2018-01-14T10:35:37.324Z,102655.67
2018-01-14T10:38:04.857Z,102651.47
2018-01-14T10:40:32.368Z,102652.42
2018-01-14T10:42:59.900Z,102651.53
2018-01-14T10:45:27.466Z,102649.22
2018-01-14T10:47:55.020Z,102648.33
2018-01-14T10:50:22.547Z,102657.47
2018-01-14T10:52:50.106Z,102650.65
2018-01-14T10:55:17.699Z,102648.44
2018-01-14T10:57:45.223Z,102650.36
2018-01-14T11:00:12.746Z,102644.14
2018-01-14T11:02:40.283Z,102641.55
2018-01-14T11:05:07.797Z,102641.98
2018-01-14T11:07:35.387Z,102637.36
2018-01-14T11:10:02.948Z,102625.77
2018-01-14T11:12:30.480Z,102633.09
2018-01-14T11:14:58.077Z,102628.06
2018-01-14T11:17:26.489Z,102632.59
2018-01-14T11:19:54.019Z,102617.77
2018-01-14T11:22:21.536Z,102612.02
2018-01-14T11:24:49.180Z,102614.89
2018-01-14T11:27:16.793Z,102616.27
2018-01-14T11:30:01.861Z,102622.47
2018-01-14T11:32:29.392Z,102626.67
2018-01-14T11:34:56.949Z,102614.06
2018-01-14T11:37:24.540Z,102614.02
2018-01-14T11:39:52.145Z,102609.59
2018-01-14T11:42:19.691Z,102603.11
2018-01-14T11:44:47.230Z,102607.42
2018-01-14T11:47:14.745Z,102619.86
2018-01-14T11:49:42.273Z,102597.81
2018-01-14T11:52:09.917Z,102603.80
2018-01-14T11:54:37.460Z,102605.97
2018-01-14T11:57:05.037Z,102599.34
2018-01-14T11:59:32.560Z,102585.80
2018-01-14T12:02:00.088Z,102591.98
2018-01-14T12:04:27.607Z,102589.06
2018-01-14T12:06:55.161Z,102592.77
2018-01-14T12:09:22.686Z,102586.47
2018-01-14T12:11:50.288Z,102585.27
2018-01-14T12:14:17.853Z,102594.98
2018-01-14T12:16:45.398Z,102586.83
2018-01-14T12:19:12.916Z,102587.78
2018-01-14T12:21:40.429Z,102596.58
2018-01-14T12:24:07.944Z,102589.56
2018-01-14T12:26:35.460Z,102580.90
2018-01-14T12:29:03.007Z,102593.28
2018-01-14T12:31:30.542Z,102589.91
2018-01-14T12:37:11.660Z,102568.72
2018-01-14T12:39:39.227Z,102570.66
2018-01-14T12:42:06.785Z,102571.98
2018-01-14T12:44:34.318Z,102572.75
2018-01-14T12:47:01.842Z,102570.20
2018-01-14T12:49:29.358Z,102568.03
2018-01-14T12:51:56.895Z,102558.80
2018-01-14T12:54:24.408Z,102569.44
2018-01-14T12:56:51.946Z,102561.63
2018-01-14T12:59:19.454Z,102562.42
2018-01-14T13:01:46.972Z,102558.20
2018-01-14T13:04:14.487Z,102551.42
2018-01-14T13:06:42.071Z,102555.59
2018-01-14T13:09:09.606Z,102552.77
2018-01-14T13:11:37.124Z,102542.09
2018-01-14T13:14:04.646Z,102550.39
2018-01-14T13:16:32.172Z,102543.83
2018-01-14T13:18:59.700Z,102556.39
2018-01-14T13:21:27.235Z,102556.14
2018-01-14T13:23:54.762Z,102549.72
2018-01-14T13:26:22.285Z,102549.45
2018-01-14T13:28:49.813Z,102549.87
2018-01-14T13:31:17.325Z,102556.16
2018-01-14T13:33:44.915Z,102551.63
2018-01-14T13:36:12.436Z,102544.17
2018-01-14T13:38:39.950Z,102543.34
2018-01-14T13:41:07.473Z,102542.80
2018-01-14T13:43:34.991Z,102551.75
2018-01-14T13:46:02.508Z,102544.70
2018-01-14T13:48:30.082Z,102539.22
2018-01-14T13:50:57.609Z,102548.89
2018-01-14T13:53:25.132Z,102543.55
2018-01-14T13:55:52.649Z,102537.97
2018-01-14T13:58:20.161Z,102535.65
2018-01-14T14:00:47.682Z,102524.20
2018-01-14T14:03:15.241Z,102537.11
2018-01-14T14:05:42.763Z,102527.43
2018-01-14T14:08:10.294Z,102539.70
2018-01-14T14:10:37.903Z,102532.79
2018-01-14T14:13:05.407Z,102536.63
2018-01-14T14:15:32.924Z,102529.70
2018-01-14T14:18:00.439Z,102537.60
2018-01-14T14:20:28.049Z,102539.59
2018-01-14T14:22:55.622Z,102532.75
2018-01-14T14:25:23.176Z,102532.80
2018-01-14T14:27:50.765Z,102531.89
2018-01-14T14:30:18.279Z,102536.52
2018-01-14T14:32:45.844Z,102536.89
2018-01-14T14:35:13.383Z,102534.33
2018-01-14T14:37:40.935Z,102529.58
2018-01-14T14:40:08.464Z,102524.61
2018-01-14T14:42:35.984Z,102532.34
2018-01-14T14:45:03.552Z,102534.02
2018-01-14T14:47:31.078Z,102529.86
2018-01-14T14:49:58.665Z,102530.42
2018-01-14T14:52:26.191Z,102527.98
2018-01-14T14:54:53.724Z,102528.89
2018-01-14T14:57:21.236Z,102525.31
2018-01-14T14:59:48.749Z,102538.23
2018-01-14T15:02:16.266Z,102536.01
2018-01-14T15:04:43.819Z,102523.00
2018-01-14T15:07:11.387Z,102545.70
2018-01-14T15:09:38.916Z,102540.42
2018-01-14T15:12:06.471Z,102526.62
2018-01-14T15:14:33.983Z,102529.27
2018-01-14T15:17:01.505Z,102529.57
2018-01-14T15:19:29.040Z,102530.86
2018-01-14T15:21:56.645Z,102534.36
2018-01-14T15:24:24.198Z,102530.78
2018-01-14T15:26:51.704Z,102527.11
2018-01-14T15:29:19.222Z,102529.73
2018-01-14T15:31:46.776Z,102536.73
2018-01-14T15:34:14.284Z,102536.20
2018-01-14T15:36:41.892Z,102529.59
2018-01-14T15:39:09.451Z,102529.45
2018-01-14T15:41:36.977Z,102531.59
2018-01-14T15:44:04.495Z,102532.89
2018-01-14T15:46:32.040Z,102528.87
2018-01-14T15:48:59.560Z,102531.86
2018-01-14T15:51:27.148Z,102535.84
2018-01-14T15:53:54.660Z,102534.02
2018-01-14T15:56:22.168Z,102533.60
2018-01-14T15:58:49.704Z,102528.19
2018-01-14T16:01:17.225Z,102529.94
2018-01-14T16:03:44.727Z,102530.29
2018-01-14T16:06:12.308Z,102530.63
2018-01-14T16:08:39.815Z,102528.87
2018-01-14T16:11:07.428Z,102531.05
2018-01-14T16:13:34.989Z,102526.64
2018-01-14T16:16:02.548Z,102528.27
2018-01-14T16:18:30.103Z,102528.22
2018-01-14T16:20:57.636Z,102530.33
2018-01-14T16:23:25.228Z,102526.38
2018-01-14T16:25:52.757Z,102531.67
2018-01-14T16:28:20.277Z,102536.45
2018-01-14T16:30:47.909Z,102524.96
2018-01-14T16:33:15.480Z,102529.30
2018-01-14T16:35:43.040Z,102530.17
2018-01-14T16:38:10.564Z,102530.09
2018-01-14T16:40:38.088Z,102524.37
2018-01-14T16:43:05.617Z,102520.75
2018-01-14T16:45:33.135Z,102521.67
2018-01-14T16:48:00.655Z,102523.38
2018-01-14T16:50:28.190Z,102519.05
2018-01-14T16:52:55.724Z,102521.16
2018-01-14T16:55:23.326Z,102522.79
2018-01-14T16:57:50.978Z,102518.77
2018-01-14T17:00:18.523Z,102518.25
2018-01-14T17:02:46.097Z,102520.47
2018-01-14T17:05:13.628Z,102523.62
2018-01-14T17:07:41.158Z,102517.38
2018-01-14T17:10:08.723Z,102524.73
2018-01-14T17:12:36.322Z,102527.34
2018-01-14T17:15:03.854Z,102518.89
2018-01-14T17:17:31.393Z,102525.53
2018-01-14T17:19:58.910Z,102520.69
2018-01-14T17:22:26.431Z,102525.95
2018-01-14T17:24:53.957Z,102525.84
2018-01-14T17:27:21.477Z,102526.34
2018-01-14T17:29:49.059Z,102520.06
2018-01-14T17:32:16.607Z,102517.87
2018-01-14T17:34:44.137Z,102513.86
2018-01-14T17:37:11.680Z,102518.14
2018-01-14T17:39:39.397Z,102514.20
2018-01-14T17:42:06.920Z,102510.69
2018-01-14T17:44:34.580Z,102511.51
2018-01-14T17:47:02.185Z,102519.00
2018-01-14T17:49:29.840Z,102514.53
2018-01-14T17:51:57.405Z,102516.25
2018-01-14T17:54:24.923Z,102511.01
2018-01-14T17:56:52.477Z,102513.16
2018-01-14T17:59:20.080Z,102514.82
2018-01-14T18:01:47.610Z,102506.55
2018-01-14T18:04:15.129Z,102512.59
2018-01-14T18:06:42.728Z,102513.42
2018-01-14T18:09:10.240Z,102510.37
2018-01-14T18:11:37.748Z,102511.61
2018-01-14T18:14:05.337Z,102516.55
2018-01-14T18:16:33.001Z,102510.21
2018-01-14T18:19:00.525Z,102506.22
2018-01-14T18:21:28.082Z,102502.36
2018-01-14T18:23:55.613Z,102501.76
2018-01-14T18:26:23.242Z,102499.91
2018-01-14T18:28:50.799Z,102501.18
2018-01-14T18:31:18.361Z,102501.22
2018-01-14T18:33:45.903Z,102489.71
2018-01-14T18:36:13.430Z,102496.73
2018-01-14T18:38:41.041Z,102504.56
2018-01-14T18:41:08.626Z,102491.45
2018-01-14T18:43:36.248Z,102499.30
2018-01-14T18:46:10.340Z,102486.55
2018-01-14T18:48:37.858Z,102493.52
2018-01-14T18:51:05.396Z,102488.63
2018-01-14T18:53:32.955Z,102499.58
2018-01-14T18:56:00.496Z,102497.37
2018-01-14T18:58:28.020Z,102500.33
2018-01-14T19:00:55.578Z,102497.17
2018-01-14T19:03:23.224Z,102504.17
2018-01-14T19:05:50.749Z,102495.84
2018-01-14T19:08:18.277Z,102494.50
2018-01-14T19:10:45.798Z,102505.00
2018-01-14T19:13:13.330Z,102492.30
2018-01-14T19:15:40.880Z,102488.78
2018-01-14T19:18:08.438Z,102486.48
2018-01-14T19:20:36.008Z,102486.07
2018-01-14T19:23:03.536Z,102482.91
2018-01-14T19:25:31.070Z,102489.52
2018-01-14T19:27:58.614Z,102488.13
2018-01-14T19:30:26.249Z,102490.28
2018-01-14T19:32:53.767Z,102489.58
2018-01-14T19:35:21.313Z,102487.76
2018-01-14T19:37:48.931Z,102479.45
2018-01-14T19:40:16.449Z,102476.68
2018-01-14T19:42:44.012Z,102471.42
2018-01-14T19:45:11.537Z,102473.14
2018-01-14T19:47:39.069Z,102468.71
2018-01-14T19:50:06.584Z,102464.30
2018-01-14T19:52:34.176Z,102468.20
2018-01-14T19:55:01.737Z,102455.99
2018-01-14T19:57:29.248Z,102461.23
2018-01-14T19:59:56.765Z,102458.48
2018-01-14T20:02:24.279Z,102464.14
2018-01-14T20:04:51.798Z,102453.67
2018-01-14T20:07:19.442Z,102456.38
2018-01-14T20:09:46.956Z,102445.78
2018-01-14T20:12:14.468Z,102440.13
2018-01-14T20:14:41.993Z,102436.66
2018-01-14T20:17:09.568Z,102437.99
2018-01-14T20:19:37.110Z,102437.64
2018-01-14T20:22:04.632Z,102446.48
2018-01-14T20:24:32.161Z,102439.00
2018-01-14T20:26:59.703Z,102450.31
2018-01-14T20:29:27.240Z,102438.90
2018-01-14T20:31:54.829Z,102441.91
2018-01-14T20:34:22.397Z,102444.26
2018-01-14T20:36:49.914Z,102440.60
2018-01-14T20:39:18.429Z,102446.63
2018-01-14T20:41:45.993Z,102440.08
2018-01-14T20:44:34.305Z,102443.23
2018-01-14T20:47:01.840Z,102439.69
2018-01-14T20:49:29.470Z,102444.97
2018-01-14T20:51:56.996Z,102443.79
2018-01-14T20:54:24.609Z,102445.74
2018-01-14T20:56:52.236Z,102449.94
2018-01-14T20:59:19.773Z,102440.27
2018-01-14T21:01:47.487Z,102435.98
2018-01-14T21:04:15.009Z,102439.75
2018-01-14T21:06:42.580Z,102435.48
2018-01-14T21:09:10.141Z,102435.34
2018-01-14T21:11:37.704Z,102429.33
2018-01-14T21:14:05.243Z,102435.81
2018-01-14T21:16:32.784Z,102429.23
2018-01-14T21:19:00.302Z,102421.34
2018-01-14T21:21:27.860Z,102427.94
2018-01-14T21:23:55.414Z,102429.39
2018-01-14T21:26:22.965Z,102426.86
2018-01-14T21:28:50.539Z,102421.28
2018-01-14T21:31:18.048Z,102424.27
2018-01-14T21:33:45.636Z,102425.73
2018-01-14T21:36:13.167Z,102435.34
2018-01-14T21:38:40.775Z,102430.78
2018-01-14T21:41:08.297Z,102423.27
2018-01-14T21:43:35.896Z,102438.17
2018-01-14T21:46:03.420Z,102432.47
2018-01-14T21:48:30.940Z,102429.97
2018-01-14T21:50:59.416Z,102441.92
2018-01-14T21:53:26.963Z,102433.90
2018-01-14T21:55:54.476Z,102438.27
2018-01-14T21:58:22.033Z,102433.90
2018-01-14T22:00:49.667Z,102424.07
2018-01-14T22:03:17.294Z,102428.67
2018-01-14T22:05:45.050Z,102433.39
2018-01-14T22:08:12.565Z,102419.56
2018-01-14T22:10:40.113Z,102421.50
2018-01-14T22:13:07.633Z,102424.20
2018-01-14T22:15:35.308Z,102411.09
2018-01-14T22:18:02.828Z,102408.18
2018-01-14T22:20:30.422Z,102414.41
2018-01-14T22:22:58.136Z,102405.64
2018-01-14T22:25:25.813Z,102410.21
2018-01-14T22:27:53.356Z,102398.44
2018-01-14T22:30:21.106Z,102398.80
2018-01-14T22:32:48.629Z,102396.50
2018-01-14T22:35:16.224Z,102387.10
2018-01-14T22:37:43.749Z,102378.23
2018-01-14T22:40:11.344Z,102384.98
2018-01-14T22:42:38.967Z,102388.84
2018-01-14T22:45:06.503Z,102381.44
2018-01-14T22:47:34.092Z,102403.34
2018-01-14T22:50:01.665Z,102382.70
2018-01-14T22:52:29.309Z,102376.16
2018-01-14T22:54:56.875Z,102368.53
2018-01-14T22:57:24.421Z,102373.22
2018-01-14T22:59:52.022Z,102350.73
2018-01-14T23:02:19.663Z,102362.70
2018-01-14T23:04:47.251Z,102357.88
2018-01-14T23:07:14.884Z,102354.01
2018-01-14T23:09:42.438Z,102354.73
2018-01-14T23:12:09.969Z,102341.99
2018-01-14T23:14:37.546Z,102344.37
2018-01-14T23:17:05.088Z,102343.99
2018-01-14T23:19:44.442Z,102344.73
2018-01-14T23:22:12.106Z,102357.18
2018-01-14T23:24:39.661Z,102352.68
2018-01-14T23:27:07.233Z,102361.00
2018-01-14T23:29:34.759Z,102363.06
2018-01-14T23:32:02.367Z,102370.77
2018-01-14T23:34:29.904Z,102353.23
2018-01-14T23:36:57.430Z,102356.92
2018-01-14T23:39:25.142Z,102346.14
2018-01-14T23:41:52.657Z,102343.27
2018-01-14T23:44:20.243Z,102333.12
2018-01-14T23:46:47.756Z,102337.22
2018-01-14T23:49:15.384Z,102322.67
2018-01-14T23:51:42.909Z,102324.02
2018-01-14T23:54:10.430Z,102320.60
2018-01-14T23:56:37.963Z,102315.86
2018-01-14T23:59:05.480Z,102299.05
